sensor_id;sensor_type;location;lat;lon;timestamp;P1;durP1;ratioP1;P2;durP2;ratioP2
25972;SDS011;13765;51.166;4.466;2022-09-28T00:01:14;9.65;;;3.67;;
25972;SDS011;13765;51.166;4.466;2022-09-28T00:03:48;7.22;;;3.03;;
25972;SDS011;13765;51.166;4.466;2022-09-28T00:06:19;8.90;;;3.03;;
25972;SDS011;13765;51.166;4.466;2022-09-28T00:08:47;9.75;;;3.15;;
25972;SDS011;13765;51.166;4.466;2022-09-28T00:11:16;7.20;;;2.92;;
25972;SDS011;13765;51.166;4.466;2022-09-28T00:13:47;8.10;;;3.67;;
25972;SDS011;13765;51.166;4.466;2022-09-28T00:16:21;5.32;;;2.45;;
25972;SDS011;13765;51.166;4.466;2022-09-28T00:18:49;5.50;;;2.65;;
25972;SDS011;13765;51.166;4.466;2022-09-28T00:21:19;8.27;;;2.67;;
25972;SDS011;13765;51.166;4.466;2022-09-28T00:23:47;7.35;;;2.47;;
25972;SDS011;13765;51.166;4.466;2022-09-28T00:26:35;3.00;;;1.92;;
25972;SDS011;13765;51.166;4.466;2022-09-28T00:29:01;8.00;;;2.33;;
25972;SDS011;13765;51.166;4.466;2022-09-28T00:31:29;3.95;;;2.05;;
25972;SDS011;13765;51.166;4.466;2022-09-28T00:33:59;7.40;;;2.55;;
25972;SDS011;13765;51.166;4.466;2022-09-28T00:36:30;6.13;;;2.15;;
25972;SDS011;13765;51.166;4.466;2022-09-28T00:38:57;5.63;;;2.00;;
25972;SDS011;13765;51.166;4.466;2022-09-28T00:41:26;7.55;;;2.22;;
25972;SDS011;13765;51.166;4.466;2022-09-28T00:44:16;9.63;;;2.63;;
25972;SDS011;13765;51.166;4.466;2022-09-28T00:49:43;6.90;;;2.88;;
25972;SDS011;13765;51.166;4.466;2022-09-28T00:52:52;6.78;;;2.80;;
25972;SDS011;13765;51.166;4.466;2022-09-28T00:55:22;11.00;;;3.00;;
25972;SDS011;13765;51.166;4.466;2022-09-28T00:57:55;13.52;;;3.28;;
25972;SDS011;13765;51.166;4.466;2022-09-28T01:00:27;10.07;;;3.47;;
25972;SDS011;13765;51.166;4.466;2022-09-28T01:02:56;11.18;;;3.47;;
25972;SDS011;13765;51.166;4.466;2022-09-28T01:05:23;6.25;;;3.08;;
25972;SDS011;13765;51.166;4.466;2022-09-28T01:07:51;10.80;;;3.50;;
25972;SDS011;13765;51.166;4.466;2022-09-28T01:10:20;11.57;;;3.67;;
25972;SDS011;13765;51.166;4.466;2022-09-28T01:12:49;8.18;;;3.45;;
25972;SDS011;13765;51.166;4.466;2022-09-28T01:15:15;7.32;;;3.55;;
25972;SDS011;13765;51.166;4.466;2022-09-28T01:23:31;9.52;;;3.58;;
25972;SDS011;13765;51.166;4.466;2022-09-28T01:31:40;7.90;;;2.78;;
25972;SDS011;13765;51.166;4.466;2022-09-28T01:34:15;13.70;;;4.00;;
25972;SDS011;13765;51.166;4.466;2022-09-28T01:36:52;7.47;;;3.00;;
25972;SDS011;13765;51.166;4.466;2022-09-28T01:39:25;8.00;;;2.92;;
25972;SDS011;13765;51.166;4.466;2022-09-28T01:41:55;7.90;;;3.08;;
25972;SDS011;13765;51.166;4.466;2022-09-28T01:44:24;6.07;;;2.70;;
25972;SDS011;13765;51.166;4.466;2022-09-28T01:46:54;8.65;;;3.10;;
25972;SDS011;13765;51.166;4.466;2022-09-28T01:49:31;8.43;;;3.72;;
25972;SDS011;13765;51.166;4.466;2022-09-28T01:52:02;8.98;;;3.05;;
25972;SDS011;13765;51.166;4.466;2022-09-28T01:54:40;10.43;;;3.72;;
25972;SDS011;13765;51.166;4.466;2022-09-28T02:00:07;9.40;;;3.25;;
25972;SDS011;13765;51.166;4.466;2022-09-28T02:02:37;11.80;;;4.22;;
25972;SDS011;13765;51.166;4.466;2022-09-28T02:05:37;13.30;;;3.78;;
25972;SDS011;13765;51.166;4.466;2022-09-28T02:08:12;11.57;;;4.13;;
25972;SDS011;13765;51.166;4.466;2022-09-28T02:10:47;12.00;;;3.72;;
25972;SDS011;13765;51.166;4.466;2022-09-28T02:13:22;16.08;;;4.82;;
25972;SDS011;13765;51.166;4.466;2022-09-28T02:15:57;10.45;;;4.07;;
25972;SDS011;13765;51.166;4.466;2022-09-28T02:18:34;14.25;;;4.53;;
25972;SDS011;13765;51.166;4.466;2022-09-28T02:21:10;11.82;;;4.10;;
25972;SDS011;13765;51.166;4.466;2022-09-28T02:23:46;15.60;;;5.73;;
25972;SDS011;13765;51.166;4.466;2022-09-28T02:29:02;9.73;;;3.55;;
25972;SDS011;13765;51.166;4.466;2022-09-28T02:31:28;12.82;;;3.80;;
25972;SDS011;13765;51.166;4.466;2022-09-28T02:33:57;12.82;;;4.50;;
25972;SDS011;13765;51.166;4.466;2022-09-28T02:36:24;14.82;;;4.75;;
25972;SDS011;13765;51.166;4.466;2022-09-28T02:38:51;16.63;;;4.90;;
25972;SDS011;13765;51.166;4.466;2022-09-28T02:46:59;17.27;;;5.03;;
25972;SDS011;13765;51.166;4.466;2022-09-28T02:49:32;13.15;;;4.15;;
25972;SDS011;13765;51.166;4.466;2022-09-28T03:00:36;14.38;;;4.80;;
25972;SDS011;13765;51.166;4.466;2022-09-28T03:03:19;11.73;;;4.00;;
25972;SDS011;13765;51.166;4.466;2022-09-28T03:06:00;10.98;;;4.53;;
25972;SDS011;13765;51.166;4.466;2022-09-28T03:10:58;9.57;;;3.35;;
25972;SDS011;13765;51.166;4.466;2022-09-28T03:13:31;6.97;;;3.20;;
25972;SDS011;13765;51.166;4.466;2022-09-28T03:16:31;11.57;;;4.28;;
25972;SDS011;13765;51.166;4.466;2022-09-28T03:18:53;8.30;;;3.67;;
25972;SDS011;13765;51.166;4.466;2022-09-28T03:21:19;14.18;;;4.30;;
25972;SDS011;13765;51.166;4.466;2022-09-28T03:23:47;10.20;;;3.70;;
25972;SDS011;13765;51.166;4.466;2022-09-28T03:26:13;9.80;;;3.55;;
25972;SDS011;13765;51.166;4.466;2022-09-28T03:28:42;11.90;;;3.80;;
25972;SDS011;13765;51.166;4.466;2022-09-28T03:31:08;15.00;;;4.38;;
25972;SDS011;13765;51.166;4.466;2022-09-28T03:33:34;8.93;;;3.50;;
25972;SDS011;13765;51.166;4.466;2022-09-28T03:36:00;17.10;;;5.07;;
25972;SDS011;13765;51.166;4.466;2022-09-28T03:38:29;11.75;;;4.18;;
25972;SDS011;13765;51.166;4.466;2022-09-28T03:40:57;9.55;;;3.85;;
25972;SDS011;13765;51.166;4.466;2022-09-28T03:43:25;7.18;;;3.53;;
25972;SDS011;13765;51.166;4.466;2022-09-28T03:45:52;7.65;;;3.63;;
25972;SDS011;13765;51.166;4.466;2022-09-28T03:48:24;8.70;;;3.40;;
25972;SDS011;13765;51.166;4.466;2022-09-28T03:50:57;11.77;;;4.00;;
25972;SDS011;13765;51.166;4.466;2022-09-28T03:53:28;11.27;;;4.03;;
25972;SDS011;13765;51.166;4.466;2022-09-28T03:56:00;13.30;;;4.07;;
25972;SDS011;13765;51.166;4.466;2022-09-28T03:58:39;12.40;;;4.83;;
25972;SDS011;13765;51.166;4.466;2022-09-28T04:01:08;16.80;;;4.32;;
25972;SDS011;13765;51.166;4.466;2022-09-28T04:03:40;11.60;;;4.65;;
25972;SDS011;13765;51.166;4.466;2022-09-28T04:06:08;12.32;;;4.07;;
25972;SDS011;13765;51.166;4.466;2022-09-28T04:08:37;11.00;;;4.45;;
25972;SDS011;13765;51.166;4.466;2022-09-28T04:11:07;15.65;;;5.25;;
25972;SDS011;13765;51.166;4.466;2022-09-28T04:13:33;11.27;;;4.45;;
25972;SDS011;13765;51.166;4.466;2022-09-28T04:15:59;9.93;;;4.15;;
25972;SDS011;13765;51.166;4.466;2022-09-28T04:18:28;22.98;;;5.88;;
25972;SDS011;13765;51.166;4.466;2022-09-28T04:23:24;10.23;;;4.40;;
25972;SDS011;13765;51.166;4.466;2022-09-28T04:25:51;12.45;;;4.78;;
25972;SDS011;13765;51.166;4.466;2022-09-28T04:28:17;14.07;;;4.00;;
25972;SDS011;13765;51.166;4.466;2022-09-28T04:31:01;12.07;;;4.43;;
25972;SDS011;13765;51.166;4.466;2022-09-28T04:33:32;12.00;;;5.03;;
25972;SDS011;13765;51.166;4.466;2022-09-28T04:35:58;12.95;;;4.57;;
25972;SDS011;13765;51.166;4.466;2022-09-28T04:38:24;12.43;;;5.03;;
25972;SDS011;13765;51.166;4.466;2022-09-28T04:40:50;12.07;;;5.18;;
25972;SDS011;13765;51.166;4.466;2022-09-28T04:43:20;13.02;;;5.38;;
25972;SDS011;13765;51.166;4.466;2022-09-28T04:45:46;14.77;;;4.93;;
25972;SDS011;13765;51.166;4.466;2022-09-28T04:48:12;13.75;;;5.53;;
25972;SDS011;13765;51.166;4.466;2022-09-28T04:50:38;15.50;;;4.68;;
25972;SDS011;13765;51.166;4.466;2022-09-28T04:53:06;18.60;;;5.10;;
25972;SDS011;13765;51.166;4.466;2022-09-28T04:55:32;16.10;;;4.95;;
25972;SDS011;13765;51.166;4.466;2022-09-28T04:57:58;10.38;;;4.30;;
25972;SDS011;13765;51.166;4.466;2022-09-28T05:00:28;17.15;;;5.05;;
25972;SDS011;13765;51.166;4.466;2022-09-28T05:02:57;8.90;;;3.97;;
25972;SDS011;13765;51.166;4.466;2022-09-28T05:05:25;9.55;;;4.47;;
25972;SDS011;13765;51.166;4.466;2022-09-28T05:07:58;14.40;;;4.32;;
25972;SDS011;13765;51.166;4.466;2022-09-28T05:10:26;12.77;;;4.68;;
25972;SDS011;13765;51.166;4.466;2022-09-28T05:12:54;14.85;;;4.80;;
25972;SDS011;13765;51.166;4.466;2022-09-28T05:15:20;14.88;;;4.72;;
25972;SDS011;13765;51.166;4.466;2022-09-28T05:17:46;18.00;;;5.32;;
25972;SDS011;13765;51.166;4.466;2022-09-28T05:20:11;13.18;;;4.95;;
25972;SDS011;13765;51.166;4.466;2022-09-28T05:22:37;15.10;;;4.28;;
25972;SDS011;13765;51.166;4.466;2022-09-28T05:25:02;12.00;;;4.45;;
25972;SDS011;13765;51.166;4.466;2022-09-28T05:27:28;11.85;;;4.00;;
25972;SDS011;13765;51.166;4.466;2022-09-28T05:29:54;16.67;;;4.88;;
25972;SDS011;13765;51.166;4.466;2022-09-28T05:32:20;16.63;;;6.15;;
25972;SDS011;13765;51.166;4.466;2022-09-28T05:34:46;14.10;;;4.35;;
25972;SDS011;13765;51.166;4.466;2022-09-28T05:37:14;13.88;;;4.80;;
25972;SDS011;13765;51.166;4.466;2022-09-28T05:39:40;12.43;;;4.68;;
25972;SDS011;13765;51.166;4.466;2022-09-28T05:42:06;12.63;;;5.30;;
25972;SDS011;13765;51.166;4.466;2022-09-28T05:44:34;13.75;;;4.72;;
25972;SDS011;13765;51.166;4.466;2022-09-28T05:47:02;10.25;;;4.30;;
25972;SDS011;13765;51.166;4.466;2022-09-28T05:49:27;12.27;;;4.80;;
25972;SDS011;13765;51.166;4.466;2022-09-28T05:51:55;13.38;;;4.43;;
25972;SDS011;13765;51.166;4.466;2022-09-28T05:54:21;12.25;;;4.32;;
25972;SDS011;13765;51.166;4.466;2022-09-28T05:56:46;11.93;;;4.05;;
25972;SDS011;13765;51.166;4.466;2022-09-28T05:59:12;13.93;;;5.00;;
25972;SDS011;13765;51.166;4.466;2022-09-28T06:01:37;12.23;;;4.00;;
25972;SDS011;13765;51.166;4.466;2022-09-28T06:04:04;12.75;;;4.78;;
25972;SDS011;13765;51.166;4.466;2022-09-28T06:06:35;12.68;;;4.07;;
25972;SDS011;13765;51.166;4.466;2022-09-28T06:09:02;12.30;;;3.80;;
25972;SDS011;13765;51.166;4.466;2022-09-28T06:11:28;11.52;;;4.35;;
25972;SDS011;13765;51.166;4.466;2022-09-28T06:13:55;20.67;;;4.22;;
25972;SDS011;13765;51.166;4.466;2022-09-28T06:16:22;16.65;;;5.20;;
25972;SDS011;13765;51.166;4.466;2022-09-28T06:18:48;10.48;;;3.97;;
25972;SDS011;13765;51.166;4.466;2022-09-28T06:21:14;12.13;;;4.47;;
25972;SDS011;13765;51.166;4.466;2022-09-28T06:23:42;9.20;;;3.65;;
25972;SDS011;13765;51.166;4.466;2022-09-28T06:26:08;10.27;;;3.63;;
25972;SDS011;13765;51.166;4.466;2022-09-28T06:28:33;9.50;;;3.75;;
25972;SDS011;13765;51.166;4.466;2022-09-28T06:30:59;9.10;;;3.83;;
25972;SDS011;13765;51.166;4.466;2022-09-28T06:33:28;10.73;;;4.03;;
25972;SDS011;13765;51.166;4.466;2022-09-28T06:35:54;7.93;;;4.13;;
25972;SDS011;13765;51.166;4.466;2022-09-28T06:38:19;14.00;;;4.30;;
25972;SDS011;13765;51.166;4.466;2022-09-28T06:40:48;12.38;;;4.00;;
25972;SDS011;13765;51.166;4.466;2022-09-28T06:43:14;9.38;;;4.05;;
25972;SDS011;13765;51.166;4.466;2022-09-28T06:45:40;11.60;;;3.85;;
25972;SDS011;13765;51.166;4.466;2022-09-28T06:48:07;10.43;;;3.63;;
25972;SDS011;13765;51.166;4.466;2022-09-28T06:50:35;13.63;;;4.75;;
25972;SDS011;13765;51.166;4.466;2022-09-28T06:53:04;11.07;;;3.75;;
25972;SDS011;13765;51.166;4.466;2022-09-28T06:55:31;15.07;;;5.75;;
25972;SDS011;13765;51.166;4.466;2022-09-28T06:58:04;9.93;;;4.28;;
25972;SDS011;13765;51.166;4.466;2022-09-28T07:00:35;18.02;;;4.70;;
25972;SDS011;13765;51.166;4.466;2022-09-28T07:03:04;15.15;;;4.60;;
25972;SDS011;13765;51.166;4.466;2022-09-28T07:05:35;10.10;;;3.78;;
25972;SDS011;13765;51.166;4.466;2022-09-28T07:08:09;21.00;;;4.80;;
25972;SDS011;13765;51.166;4.466;2022-09-28T07:10:47;22.02;;;5.45;;
25972;SDS011;13765;51.166;4.466;2022-09-28T07:13:20;10.40;;;3.78;;
25972;SDS011;13765;51.166;4.466;2022-09-28T07:15:47;14.63;;;4.15;;
25972;SDS011;13765;51.166;4.466;2022-09-28T07:18:17;13.73;;;4.55;;
25972;SDS011;13765;51.166;4.466;2022-09-28T07:20:43;15.10;;;5.03;;
25972;SDS011;13765;51.166;4.466;2022-09-28T07:23:09;17.25;;;5.22;;
25972;SDS011;13765;51.166;4.466;2022-09-28T07:25:37;10.88;;;4.25;;
25972;SDS011;13765;51.166;4.466;2022-09-28T07:28:09;15.32;;;4.68;;
25972;SDS011;13765;51.166;4.466;2022-09-28T07:30:36;14.73;;;4.13;;
25972;SDS011;13765;51.166;4.466;2022-09-28T07:33:03;16.35;;;5.45;;
25972;SDS011;13765;51.166;4.466;2022-09-28T07:35:33;11.52;;;4.60;;
25972;SDS011;13765;51.166;4.466;2022-09-28T07:37:59;13.25;;;5.15;;
25972;SDS011;13765;51.166;4.466;2022-09-28T07:40:27;12.68;;;4.60;;
25972;SDS011;13765;51.166;4.466;2022-09-28T07:43:12;10.45;;;4.55;;
25972;SDS011;13765;51.166;4.466;2022-09-28T07:45:38;12.48;;;5.00;;
25972;SDS011;13765;51.166;4.466;2022-09-28T07:48:11;11.75;;;3.75;;
25972;SDS011;13765;51.166;4.466;2022-09-28T07:50:42;11.73;;;4.43;;
25972;SDS011;13765;51.166;4.466;2022-09-28T07:53:22;15.95;;;5.05;;
25972;SDS011;13765;51.166;4.466;2022-09-28T07:55:52;13.25;;;4.80;;
25972;SDS011;13765;51.166;4.466;2022-09-28T07:58:24;11.32;;;4.07;;
25972;SDS011;13765;51.166;4.466;2022-09-28T08:00:50;12.70;;;4.82;;
25972;SDS011;13765;51.166;4.466;2022-09-28T08:03:16;10.70;;;4.15;;
25972;SDS011;13765;51.166;4.466;2022-09-28T08:05:46;9.55;;;3.45;;
25972;SDS011;13765;51.166;4.466;2022-09-28T08:08:13;13.95;;;4.50;;
25972;SDS011;13765;51.166;4.466;2022-09-28T08:10:42;12.57;;;4.03;;
25972;SDS011;13765;51.166;4.466;2022-09-28T08:13:09;9.52;;;3.15;;
25972;SDS011;13765;51.166;4.466;2022-09-28T08:15:35;14.70;;;3.63;;
25972;SDS011;13765;51.166;4.466;2022-09-28T08:18:04;7.82;;;3.08;;
25972;SDS011;13765;51.166;4.466;2022-09-28T08:20:32;9.70;;;4.07;;
25972;SDS011;13765;51.166;4.466;2022-09-28T08:23:16;15.75;;;4.15;;
25972;SDS011;13765;51.166;4.466;2022-09-28T08:25:49;8.32;;;2.92;;
25972;SDS011;13765;51.166;4.466;2022-09-28T08:28:21;13.07;;;3.83;;
25972;SDS011;13765;51.166;4.466;2022-09-28T08:30:51;11.77;;;3.78;;
25972;SDS011;13765;51.166;4.466;2022-09-28T08:33:18;13.65;;;3.88;;
25972;SDS011;13765;51.166;4.466;2022-09-28T08:35:45;11.30;;;3.58;;
25972;SDS011;13765;51.166;4.466;2022-09-28T08:38:11;9.82;;;3.95;;
25972;SDS011;13765;51.166;4.466;2022-09-28T08:40:47;13.98;;;3.72;;
25972;SDS011;13765;51.166;4.466;2022-09-28T08:46:08;12.00;;;3.42;;
25972;SDS011;13765;51.166;4.466;2022-09-28T08:48:38;9.05;;;3.22;;
25972;SDS011;13765;51.166;4.466;2022-09-28T08:51:24;10.90;;;3.00;;
25972;SDS011;13765;51.166;4.466;2022-09-28T08:54:12;10.57;;;3.30;;
25972;SDS011;13765;51.166;4.466;2022-09-28T08:57:18;9.15;;;2.83;;
25972;SDS011;13765;51.166;4.466;2022-09-28T08:59:49;7.80;;;2.67;;
25972;SDS011;13765;51.166;4.466;2022-09-28T09:02:27;8.52;;;2.45;;
25972;SDS011;13765;51.166;4.466;2022-09-28T09:05:09;7.30;;;2.72;;
25972;SDS011;13765;51.166;4.466;2022-09-28T09:10:48;7.40;;;2.15;;
25972;SDS011;13765;51.166;4.466;2022-09-28T09:22:15;4.10;;;2.00;;
25972;SDS011;13765;51.166;4.466;2022-09-28T09:30:15;4.22;;;1.67;;
25972;SDS011;13765;51.166;4.466;2022-09-28T09:35:20;9.88;;;1.67;;
25972;SDS011;13765;51.166;4.466;2022-09-28T09:46:41;9.85;;;1.92;;
25972;SDS011;13765;51.166;4.466;2022-09-28T09:52:29;6.90;;;1.85;;
25972;SDS011;13765;51.166;4.466;2022-09-28T09:55:19;6.00;;;1.77;;
25972;SDS011;13765;51.166;4.466;2022-09-28T10:00:48;7.22;;;2.35;;
25972;SDS011;13765;51.166;4.466;2022-09-28T10:03:18;8.40;;;2.00;;
25972;SDS011;13765;51.166;4.466;2022-09-28T10:05:47;8.07;;;2.40;;
25972;SDS011;13765;51.166;4.466;2022-09-28T10:08:23;6.10;;;2.08;;
25972;SDS011;13765;51.166;4.466;2022-09-28T10:10:54;8.48;;;2.15;;
25972;SDS011;13765;51.166;4.466;2022-09-28T10:16:03;4.63;;;1.75;;
25972;SDS011;13765;51.166;4.466;2022-09-28T10:18:32;9.40;;;2.40;;
25972;SDS011;13765;51.166;4.466;2022-09-28T10:20:59;4.25;;;1.42;;
25972;SDS011;13765;51.166;4.466;2022-09-28T10:23:26;5.18;;;1.88;;
25972;SDS011;13765;51.166;4.466;2022-09-28T10:31:33;10.80;;;2.05;;
25972;SDS011;13765;51.166;4.466;2022-09-28T10:34:10;4.97;;;1.58;;
25972;SDS011;13765;51.166;4.466;2022-09-28T10:36:57;7.25;;;2.10;;
25972;SDS011;13765;51.166;4.466;2022-09-28T10:39:28;4.38;;;1.95;;
25972;SDS011;13765;51.166;4.466;2022-09-28T10:42:00;9.05;;;2.10;;
25972;SDS011;13765;51.166;4.466;2022-09-28T10:44:33;4.47;;;1.83;;
25972;SDS011;13765;51.166;4.466;2022-09-28T10:47:13;4.60;;;1.92;;
25972;SDS011;13765;51.166;4.466;2022-09-28T10:49:46;3.38;;;1.80;;
25972;SDS011;13765;51.166;4.466;2022-09-28T10:52:28;6.60;;;1.95;;
25972;SDS011;13765;51.166;4.466;2022-09-28T10:54:55;6.65;;;2.45;;
25972;SDS011;13765;51.166;4.466;2022-09-28T10:57:33;7.72;;;2.67;;
25972;SDS011;13765;51.166;4.466;2022-09-28T11:00:04;10.00;;;2.95;;
25972;SDS011;13765;51.166;4.466;2022-09-28T11:02:51;6.97;;;2.78;;
25972;SDS011;13765;51.166;4.466;2022-09-28T11:05:19;10.90;;;3.20;;
25972;SDS011;13765;51.166;4.466;2022-09-28T11:07:49;9.40;;;2.90;;
25972;SDS011;13765;51.166;4.466;2022-09-28T11:10:20;7.95;;;2.70;;
25972;SDS011;13765;51.166;4.466;2022-09-28T11:12:50;12.35;;;3.45;;
25972;SDS011;13765;51.166;4.466;2022-09-28T11:15:20;7.22;;;1.65;;
25972;SDS011;13765;51.166;4.466;2022-09-28T11:17:53;6.55;;;1.80;;
25972;SDS011;13765;51.166;4.466;2022-09-28T11:22:51;4.15;;;1.83;;
25972;SDS011;13765;51.166;4.466;2022-09-28T11:25:26;6.47;;;1.85;;
25972;SDS011;13765;51.166;4.466;2022-09-28T11:33:15;5.30;;;1.70;;
25972;SDS011;13765;51.166;4.466;2022-09-28T11:38:31;3.50;;;1.35;;
25972;SDS011;13765;51.166;4.466;2022-09-28T11:49:32;4.00;;;1.10;;
25972;SDS011;13765;51.166;4.466;2022-09-28T11:52:07;2.72;;;1.38;;
25972;SDS011;13765;51.166;4.466;2022-09-28T11:54:45;7.28;;;1.38;;
25972;SDS011;13765;51.166;4.466;2022-09-28T11:57:17;3.25;;;1.48;;
25972;SDS011;13765;51.166;4.466;2022-09-28T11:59:56;4.38;;;2.22;;
25972;SDS011;13765;51.166;4.466;2022-09-28T12:02:37;7.75;;;2.47;;
25972;SDS011;13765;51.166;4.466;2022-09-28T12:05:12;7.90;;;2.47;;
25972;SDS011;13765;51.166;4.466;2022-09-28T12:07:49;5.28;;;2.35;;
25972;SDS011;13765;51.166;4.466;2022-09-28T12:13:01;3.95;;;1.92;;
25972;SDS011;13765;51.166;4.466;2022-09-28T12:16:07;2.92;;;1.30;;
25972;SDS011;13765;51.166;4.466;2022-09-28T12:18:48;8.40;;;2.20;;
25972;SDS011;13765;51.166;4.466;2022-09-28T12:23:46;3.05;;;1.42;;
25972;SDS011;13765;51.166;4.466;2022-09-28T12:26:35;3.20;;;1.33;;
25972;SDS011;13765;51.166;4.466;2022-09-28T12:29:11;2.03;;;1.05;;
25972;SDS011;13765;51.166;4.466;2022-09-28T12:34:15;1.90;;;1.70;;
25972;SDS011;13765;51.166;4.466;2022-09-28T12:39:42;2.90;;;1.58;;
25972;SDS011;13765;51.166;4.466;2022-09-28T12:56:04;8.50;;;2.28;;
25972;SDS011;13765;51.166;4.466;2022-09-28T12:58:50;3.45;;;1.50;;
25972;SDS011;13765;51.166;4.466;2022-09-28T13:18:19;1.98;;;0.90;;
25972;SDS011;13765;51.166;4.466;2022-09-28T13:21:19;1.80;;;0.35;;
25972;SDS011;13765;51.166;4.466;2022-09-28T13:23:47;2.00;;;0.50;;
25972;SDS011;13765;51.166;4.466;2022-09-28T13:26:25;0.43;;;0.35;;
25972;SDS011;13765;51.166;4.466;2022-09-28T13:29:00;2.35;;;0.57;;
25972;SDS011;13765;51.166;4.466;2022-09-28T13:34:35;0.82;;;0.50;;
25972;SDS011;13765;51.166;4.466;2022-09-28T13:39:50;1.48;;;0.45;;
25972;SDS011;13765;51.166;4.466;2022-09-28T13:58:59;4.80;;;1.25;;
25972;SDS011;13765;51.166;4.466;2022-09-28T14:01:39;2.15;;;0.40;;
25972;SDS011;13765;51.166;4.466;2022-09-28T14:04:14;1.33;;;0.80;;
25972;SDS011;13765;51.166;4.466;2022-09-28T14:15:00;4.45;;;1.92;;
25972;SDS011;13765;51.166;4.466;2022-09-28T14:20:00;1.77;;;0.75;;
25972;SDS011;13765;51.166;4.466;2022-09-28T14:33:15;1.65;;;0.60;;
25972;SDS011;13765;51.166;4.466;2022-09-28T14:35:48;2.58;;;0.68;;
25972;SDS011;13765;51.166;4.466;2022-09-28T14:38:19;0.98;;;0.35;;
25972;SDS011;13765;51.166;4.466;2022-09-28T14:48:47;2.92;;;1.00;;
25972;SDS011;13765;51.166;4.466;2022-09-28T14:53:51;3.90;;;0.80;;
25972;SDS011;13765;51.166;4.466;2022-09-28T14:56:19;8.40;;;1.02;;
25972;SDS011;13765;51.166;4.466;2022-09-28T14:58:53;2.58;;;0.65;;
25972;SDS011;13765;51.166;4.466;2022-09-28T15:01:22;0.88;;;0.40;;
25972;SDS011;13765;51.166;4.466;2022-09-28T15:03:53;5.68;;;1.17;;
25972;SDS011;13765;51.166;4.466;2022-09-28T15:06:21;1.48;;;0.40;;
25972;SDS011;13765;51.166;4.466;2022-09-28T15:08:48;0.30;;;0.30;;
25972;SDS011;13765;51.166;4.466;2022-09-28T15:11:21;1.17;;;0.65;;
25972;SDS011;13765;51.166;4.466;2022-09-28T15:14:03;1.55;;;0.40;;
25972;SDS011;13765;51.166;4.466;2022-09-28T15:16:31;1.85;;;0.80;;
25972;SDS011;13765;51.166;4.466;2022-09-28T15:21:33;2.33;;;0.73;;
25972;SDS011;13765;51.166;4.466;2022-09-28T15:24:01;1.65;;;0.73;;
25972;SDS011;13765;51.166;4.466;2022-09-28T15:26:31;0.70;;;0.45;;
25972;SDS011;13765;51.166;4.466;2022-09-28T15:29:00;2.53;;;0.70;;
25972;SDS011;13765;51.166;4.466;2022-09-28T15:31:29;3.20;;;0.90;;
25972;SDS011;13765;51.166;4.466;2022-09-28T15:33:59;3.20;;;0.70;;
25972;SDS011;13765;51.166;4.466;2022-09-28T15:36:45;3.75;;;1.17;;
25972;SDS011;13765;51.166;4.466;2022-09-28T15:39:16;4.13;;;0.82;;
25972;SDS011;13765;51.166;4.466;2022-09-28T15:41:46;2.65;;;0.77;;
25972;SDS011;13765;51.166;4.466;2022-09-28T15:47:02;3.88;;;1.00;;
25972;SDS011;13765;51.166;4.466;2022-09-28T15:52:22;2.88;;;0.73;;
25972;SDS011;13765;51.166;4.466;2022-09-28T15:54:58;1.58;;;0.95;;
25972;SDS011;13765;51.166;4.466;2022-09-28T15:57:33;3.08;;;1.13;;
25972;SDS011;13765;51.166;4.466;2022-09-28T16:00:03;6.82;;;1.45;;
25972;SDS011;13765;51.166;4.466;2022-09-28T16:02:32;3.03;;;0.98;;
25972;SDS011;13765;51.166;4.466;2022-09-28T16:04:59;8.35;;;1.45;;
25972;SDS011;13765;51.166;4.466;2022-09-28T16:12:45;3.72;;;1.08;;
25972;SDS011;13765;51.166;4.466;2022-09-28T16:15:32;2.65;;;1.17;;
25972;SDS011;13765;51.166;4.466;2022-09-28T16:18:15;1.27;;;0.98;;
25972;SDS011;13765;51.166;4.466;2022-09-28T16:20:51;2.00;;;0.63;;
25972;SDS011;13765;51.166;4.466;2022-09-28T16:23:25;3.58;;;1.30;;
25972;SDS011;13765;51.166;4.466;2022-09-28T16:26:08;8.90;;;0.85;;
25972;SDS011;13765;51.166;4.466;2022-09-28T16:33:45;4.88;;;1.48;;
25972;SDS011;13765;51.166;4.466;2022-09-28T16:36:40;2.35;;;1.10;;
25972;SDS011;13765;51.166;4.466;2022-09-28T16:39:11;2.90;;;1.10;;
25972;SDS011;13765;51.166;4.466;2022-09-28T16:41:38;7.00;;;1.73;;
25972;SDS011;13765;51.166;4.466;2022-09-28T16:44:11;9.00;;;1.52;;
25972;SDS011;13765;51.166;4.466;2022-09-28T16:46:44;2.78;;;1.10;;
25972;SDS011;13765;51.166;4.466;2022-09-28T16:49:11;3.92;;;0.95;;
25972;SDS011;13765;51.166;4.466;2022-09-28T16:51:42;3.05;;;1.15;;
25972;SDS011;13765;51.166;4.466;2022-09-28T16:54:12;4.32;;;1.25;;
25972;SDS011;13765;51.166;4.466;2022-09-28T16:56:58;7.13;;;1.50;;
25972;SDS011;13765;51.166;4.466;2022-09-28T16:59:25;6.40;;;1.15;;
25972;SDS011;13765;51.166;4.466;2022-09-28T17:01:55;1.33;;;0.80;;
25972;SDS011;13765;51.166;4.466;2022-09-28T17:04:22;2.92;;;1.30;;
25972;SDS011;13765;51.166;4.466;2022-09-28T17:06:51;3.15;;;1.10;;
25972;SDS011;13765;51.166;4.466;2022-09-28T17:09:19;5.05;;;1.30;;
25972;SDS011;13765;51.166;4.466;2022-09-28T17:11:45;5.30;;;1.63;;
25972;SDS011;13765;51.166;4.466;2022-09-28T17:14:12;2.70;;;1.10;;
25972;SDS011;13765;51.166;4.466;2022-09-28T17:16:38;4.10;;;1.52;;
25972;SDS011;13765;51.166;4.466;2022-09-28T17:19:26;3.00;;;1.40;;
25972;SDS011;13765;51.166;4.466;2022-09-28T17:21:52;1.65;;;0.90;;
25972;SDS011;13765;51.166;4.466;2022-09-28T17:24:22;2.83;;;1.38;;
25972;SDS011;13765;51.166;4.466;2022-09-28T17:26:50;1.75;;;1.15;;
25972;SDS011;13765;51.166;4.466;2022-09-28T17:29:19;2.22;;;1.20;;
25972;SDS011;13765;51.166;4.466;2022-09-28T17:31:47;3.60;;;1.65;;
25972;SDS011;13765;51.166;4.466;2022-09-28T17:34:13;4.32;;;1.33;;
25972;SDS011;13765;51.166;4.466;2022-09-28T17:36:40;2.10;;;1.08;;
25972;SDS011;13765;51.166;4.466;2022-09-28T17:39:10;5.97;;;1.70;;
25972;SDS011;13765;51.166;4.466;2022-09-28T17:41:38;2.58;;;1.45;;
25972;SDS011;13765;51.166;4.466;2022-09-28T17:44:04;10.13;;;2.38;;
25972;SDS011;13765;51.166;4.466;2022-09-28T17:46:36;4.72;;;1.92;;
25972;SDS011;13765;51.166;4.466;2022-09-28T17:49:05;6.22;;;1.80;;
25972;SDS011;13765;51.166;4.466;2022-09-28T17:51:34;4.72;;;1.98;;
25972;SDS011;13765;51.166;4.466;2022-09-28T17:54:04;5.82;;;2.05;;
25972;SDS011;13765;51.166;4.466;2022-09-28T17:56:32;5.90;;;2.08;;
25972;SDS011;13765;51.166;4.466;2022-09-28T17:58:59;3.22;;;1.33;;
25972;SDS011;13765;51.166;4.466;2022-09-28T18:01:27;2.53;;;1.30;;
25972;SDS011;13765;51.166;4.466;2022-09-28T18:03:58;12.25;;;2.33;;
25972;SDS011;13765;51.166;4.466;2022-09-28T18:06:25;3.17;;;2.00;;
25972;SDS011;13765;51.166;4.466;2022-09-28T18:08:51;4.50;;;1.92;;
25972;SDS011;13765;51.166;4.466;2022-09-28T18:11:17;4.38;;;2.03;;
25972;SDS011;13765;51.166;4.466;2022-09-28T18:13:43;5.10;;;2.10;;
25972;SDS011;13765;51.166;4.466;2022-09-28T18:16:11;5.75;;;1.83;;
25972;SDS011;13765;51.166;4.466;2022-09-28T18:18:39;3.65;;;1.70;;
25972;SDS011;13765;51.166;4.466;2022-09-28T18:21:11;5.43;;;2.00;;
25972;SDS011;13765;51.166;4.466;2022-09-28T18:23:37;3.08;;;1.80;;
25972;SDS011;13765;51.166;4.466;2022-09-28T18:26:05;4.25;;;1.63;;
25972;SDS011;13765;51.166;4.466;2022-09-28T18:28:38;5.97;;;2.15;;
25972;SDS011;13765;51.166;4.466;2022-09-28T18:31:14;5.22;;;2.42;;
25972;SDS011;13765;51.166;4.466;2022-09-28T18:33:42;7.07;;;2.65;;
25972;SDS011;13765;51.166;4.466;2022-09-28T18:36:09;6.63;;;2.33;;
25972;SDS011;13765;51.166;4.466;2022-09-28T18:38:35;6.03;;;2.15;;
25972;SDS011;13765;51.166;4.466;2022-09-28T18:41:08;9.48;;;3.33;;
25972;SDS011;13765;51.166;4.466;2022-09-28T18:43:38;7.07;;;2.78;;
25972;SDS011;13765;51.166;4.466;2022-09-28T18:46:08;4.53;;;2.03;;